Time;durP1;ratioP1;P1;durP2;ratioP2;P2;SDS_P1;SDS_P2;PMS_P1;PMS_P2;Temp;Humidity;BMP_temperature;BMP_pressure;BME280_temperature;BME280_humidity;BME280_pressure;Samples;Min_cycle;Max_cycle;Signal;HPM_P1;HPM_P2
2022/06/03 00:01:06;;;;;;;0.77;0.50;;;12.90;99.90;;;;;;4962772;28;21218;-73
2022/06/03 00:03:56;;;;;;;0.70;0.50;;;12.90;99.90;;;;;;4962374;28;20409;-73
2022/06/03 00:06:40;;;;;;;0.80;0.50;;;12.90;99.90;;;;;;4964345;28;20414;-73
2022/06/03 00:09:18;;;;;;;0.80;0.50;;;12.80;99.90;;;;;;4967031;28;20412;-73
2022/06/03 00:12:07;;;;;;;0.80;0.70;;;12.80;99.90;;;;;;4966091;28;20421;-74
2022/06/03 00:15:01;;;;;;;1.53;1.10;;;12.70;99.90;;;;;;4965592;28;20779;-74
2022/06/03 00:18:14;;;;;;;0.80;0.60;;;12.70;99.90;;;;;;4967730;28;20461;-73
2022/06/03 00:21:05;;;;;;;0.80;0.50;;;12.70;99.90;;;;;;4966825;28;20433;-74
2022/06/03 00:24:01;;;;;;;0.93;0.77;;;12.60;99.90;;;;;;4967634;28;20409;-74
2022/06/03 00:26:39;;;;;;;0.80;0.50;;;12.60;99.90;;;;;;4967070;28;20422;-73
2022/06/03 00:29:32;;;;;;;0.80;0.50;;;12.50;99.90;;;;;;4966820;28;20417;-74
2022/06/03 00:32:46;;;;;;;0.80;0.50;;;12.50;99.90;;;;;;4967262;28;20409;-73
2022/06/03 00:35:33;;;;;;;0.80;0.50;;;12.50;99.90;;;;;;4963785;28;20425;-74
2022/06/03 00:38:11;;;;;;;0.80;0.60;;;12.40;99.90;;;;;;4966946;29;20437;-72
2022/06/03 00:41:01;;;;;;;1.63;0.70;;;12.40;99.90;;;;;;4966960;28;20429;-72
2022/06/03 00:43:41;;;;;;;1.07;0.60;;;12.30;99.90;;;;;;4965677;28;20406;-73
2022/06/03 00:46:33;;;;;;;0.80;0.50;;;12.30;99.90;;;;;;4966011;28;20421;-73
2022/06/03 00:49:23;;;;;;;0.70;0.50;;;12.30;99.90;;;;;;4965843;28;20414;-73
2022/06/03 00:52:27;;;;;;;0.77;0.60;;;12.20;99.90;;;;;;4965952;28;20441;-73
2022/06/03 00:55:32;;;;;;;0.80;0.50;;;12.10;99.90;;;;;;4966042;28;20414;-74
2022/06/03 00:58:19;;;;;;;0.80;0.50;;;12.10;99.90;;;;;;4967258;28;20425;-74
2022/06/03 01:01:04;;;;;;;0.80;0.50;;;12.10;99.90;;;;;;4965693;28;20440;-72
2022/06/03 01:04:04;;;;;;;0.80;0.50;;;12.00;99.90;;;;;;4966555;28;20398;-73
2022/06/03 01:07:07;;;;;;;0.80;0.50;;;12.00;99.90;;;;;;4967003;28;20500;-73
2022/06/03 01:09:53;;;;;;;0.80;0.60;;;12.00;99.90;;;;;;4966685;28;20894;-73
2022/06/03 01:12:31;;;;;;;0.80;0.50;;;11.90;99.90;;;;;;4966575;28;20538;-74
2022/06/03 01:15:20;;;;;;;0.80;0.60;;;11.90;99.90;;;;;;4965858;28;20413;-74
2022/06/03 01:18:00;;;;;;;0.80;0.50;;;11.90;99.90;;;;;;4962234;28;20442;-72
2022/06/03 01:21:08;;;;;;;0.80;0.60;;;11.90;99.90;;;;;;4966426;28;20434;-73
2022/06/03 01:24:06;;;;;;;0.90;0.80;;;11.80;99.90;;;;;;4959962;28;20422;-73
2022/06/03 01:27:09;;;;;;;0.80;0.50;;;11.80;99.90;;;;;;4968166;28;20405;-72
2022/06/03 01:30:06;;;;;;;0.80;0.50;;;11.80;99.90;;;;;;4968222;28;20436;-73
2022/06/03 01:32:38;;;;;;;0.80;0.60;;;11.70;99.90;;;;;;4967028;28;20440;-73
2022/06/03 01:35:34;;;;;;;0.80;0.50;;;11.70;99.90;;;;;;4968398;28;20418;-72
2022/06/03 01:38:26;;;;;;;0.80;0.60;;;11.70;99.90;;;;;;4967764;28;20418;-72
2022/06/03 01:41:26;;;;;;;0.80;0.70;;;11.60;99.90;;;;;;4955202;29;20437;-73
2022/06/03 01:44:10;;;;;;;0.80;0.50;;;11.60;99.90;;;;;;4966658;28;20395;-73
2022/06/03 01:47:02;;;;;;;0.80;0.60;;;11.60;99.90;;;;;;4966039;28;20422;-73
2022/06/03 01:49:30;;;;;;;0.70;0.50;;;11.60;99.90;;;;;;4966284;28;20484;-73
2022/06/03 01:52:17;;;;;;;0.80;0.50;;;11.50;99.90;;;;;;4966396;28;20438;-73
2022/06/03 01:55:14;;;;;;;0.80;0.60;;;11.50;99.90;;;;;;4966976;28;20409;-73
2022/06/03 01:57:48;;;;;;;0.80;0.60;;;11.50;99.90;;;;;;4967226;28;20520;-74
2022/06/03 02:00:26;;;;;;;0.80;0.50;;;11.50;99.90;;;;;;4966476;28;20440;-74
2022/06/03 02:03:10;;;;;;;0.80;0.50;;;11.40;99.90;;;;;;4966647;28;20413;-74
2022/06/03 02:06:06;;;;;;;0.80;0.60;;;11.40;99.90;;;;;;4965523;28;20414;-74
2022/06/03 02:09:01;;;;;;;0.80;0.50;;;11.40;99.90;;;;;;4964780;29;20438;-73
2022/06/03 02:11:42;;;;;;;0.77;0.50;;;11.40;99.90;;;;;;4965263;28;20418;-72
2022/06/03 02:14:36;;;;;;;0.80;0.60;;;11.40;99.90;;;;;;4963981;28;20501;-73
2022/06/03 02:17:32;;;;;;;0.80;0.60;;;11.30;99.90;;;;;;4965577;28;20472;-73
2022/06/03 02:20:20;;;;;;;0.80;0.50;;;11.30;99.90;;;;;;4963448;28;20433;-74
2022/06/03 02:23:16;;;;;;;1.00;0.90;;;11.30;99.90;;;;;;4965432;28;20406;-74
2022/06/03 02:26:17;;;;;;;0.80;0.50;;;11.30;99.90;;;;;;4965553;28;20441;-74
2022/06/03 02:28:46;;;;;;;2.10;1.03;;;11.20;99.90;;;;;;4968530;28;20414;-72
2022/06/03 02:31:34;;;;;;;0.70;0.50;;;11.20;99.90;;;;;;4966534;28;20456;-73
2022/06/03 02:34:34;;;;;;;0.70;0.50;;;11.20;99.90;;;;;;4964812;28;20421;-72
2022/06/03 02:37:02;;;;;;;1.00;0.80;;;11.20;99.90;;;;;;4964279;28;20457;-73
2022/06/03 02:39:28;;;;;;;0.70;0.50;;;11.20;99.90;;;;;;4965984;28;20480;-73
2022/06/03 02:42:26;;;;;;;0.80;0.50;;;11.20;99.90;;;;;;4965953;28;20514;-73
2022/06/03 02:45:23;;;;;;;2.50;0.80;;;11.20;99.90;;;;;;4966362;28;20170;-74
2022/06/03 02:47:50;;;;;;;0.70;0.50;;;11.10;99.90;;;;;;4965778;28;20422;-73
2022/06/03 02:50:37;;;;;;;0.70;0.50;;;11.10;99.90;;;;;;4963447;29;20434;-72
2022/06/03 02:53:40;;;;;;;0.80;0.50;;;11.10;99.90;;;;;;4965683;28;20423;-74
2022/06/03 02:56:43;;;;;;;0.80;0.50;;;11.10;99.90;;;;;;4964318;28;20457;-72
2022/06/03 02:59:21;;;;;;;0.70;0.50;;;11.10;99.90;;;;;;4964651;28;20509;-73
2022/06/03 03:02:11;;;;;;;0.73;0.50;;;11.10;99.90;;;;;;4964521;28;20789;-74
2022/06/03 03:04:39;;;;;;;0.80;0.50;;;11.00;99.90;;;;;;4979459;28;20420;-73
2022/06/03 03:07:23;;;;;;;0.70;0.50;;;11.00;99.90;;;;;;4964754;28;20421;-71
2022/06/03 03:10:10;;;;;;;0.80;0.50;;;11.00;99.90;;;;;;4963807;29;20509;-73
2022/06/03 03:12:58;;;;;;;0.80;0.60;;;11.00;99.90;;;;;;4964702;28;20412;-72
2022/06/03 03:15:56;;;;;;;0.77;0.50;;;11.00;99.90;;;;;;4964686;28;20943;-74
2022/06/03 03:18:39;;;;;;;0.80;0.50;;;11.00;99.90;;;;;;4966037;28;20429;-73
2022/06/03 03:21:14;;;;;;;0.80;0.60;;;11.00;99.90;;;;;;4966041;28;20429;-73
2022/06/03 03:23:46;;;;;;;0.80;0.67;;;11.00;99.90;;;;;;4979960;28;20453;-74
2022/06/03 03:26:54;;;;;;;0.70;0.50;;;11.00;99.90;;;;;;4964442;28;20425;-73
2022/06/03 03:29:48;;;;;;;0.80;0.50;;;11.00;99.90;;;;;;4964795;28;20410;-73
2022/06/03 03:32:52;;;;;;;0.70;0.50;;;11.00;99.90;;;;;;4965070;28;20433;-73
2022/06/03 03:35:36;;;;;;;0.70;0.50;;;11.00;99.90;;;;;;4962850;29;20413;-74
2022/06/03 03:38:30;;;;;;;0.80;0.50;;;11.00;99.90;;;;;;4964451;28;20420;-74
2022/06/03 03:41:33;;;;;;;0.70;0.50;;;11.10;99.90;;;;;;4965063;28;20453;-73
2022/06/03 03:44:31;;;;;;;0.70;0.50;;;11.10;99.90;;;;;;4965501;29;20417;-72
2022/06/03 03:47:12;;;;;;;0.70;0.50;;;11.10;99.90;;;;;;4967822;29;20422;-74
2022/06/03 03:50:07;;;;;;;0.70;0.50;;;11.10;99.90;;;;;;4968670;28;20400;-73
2022/06/03 03:52:51;;;;;;;0.70;0.50;;;11.10;99.90;;;;;;4968944;28;20397;-74
2022/06/03 03:55:35;;;;;;;0.70;0.50;;;11.20;99.90;;;;;;4968056;28;20414;-74
2022/06/03 03:58:31;;;;;;;0.70;0.50;;;11.20;99.90;;;;;;4969065;28;20990;-74
2022/06/03 04:00:59;;;;;;;0.77;0.60;;;11.20;99.90;;;;;;4968716;28;20473;-74
2022/06/03 04:03:45;;;;;;;0.70;0.50;;;11.30;99.90;;;;;;4968495;28;20512;-72
2022/06/03 04:06:39;;;;;;;0.70;0.50;;;11.30;99.90;;;;;;4970261;28;20413;-73
2022/06/03 04:09:15;;;;;;;1.20;0.80;;;11.30;99.90;;;;;;4968361;28;20510;-74
2022/06/03 04:12:07;;;;;;;0.70;0.57;;;11.40;99.90;;;;;;4969804;28;20440;-73
2022/06/03 04:15:01;;;;;;;0.70;0.50;;;11.40;99.90;;;;;;4969558;28;20418;-73
2022/06/03 04:17:56;;;;;;;0.70;0.50;;;11.40;99.90;;;;;;4969926;28;20541;-73
2022/06/03 04:20:21;;;;;;;0.70;0.60;;;11.50;99.90;;;;;;4970135;28;20461;-74
2022/06/03 04:23:28;;;;;;;0.90;0.67;;;11.60;99.90;;;;;;4971733;28;20437;-74
2022/06/03 04:26:24;;;;;;;0.80;0.60;;;11.60;99.90;;;;;;4971512;28;20190;-74
2022/06/03 04:28:55;;;;;;;0.80;0.60;;;11.70;99.90;;;;;;4972867;28;20410;-74
2022/06/03 04:31:52;;;;;;;0.80;0.70;;;11.80;99.90;;;;;;4971866;28;20429;-73
2022/06/03 04:34:43;;;;;;;0.70;0.50;;;11.80;99.90;;;;;;4987609;28;20425;-73
2022/06/03 04:37:47;;;;;;;0.80;0.67;;;11.90;99.90;;;;;;4971626;28;20500;-72
2022/06/03 04:40:19;;;;;;;0.80;0.50;;;12.00;99.90;;;;;;4962441;29;20434;-74
2022/06/03 04:42:50;;;;;;;1.20;0.87;;;12.10;99.90;;;;;;4972382;28;20429;-74
2022/06/03 04:45:36;;;;;;;0.80;0.60;;;12.20;99.90;;;;;;4973361;28;20445;-74
2022/06/03 04:48:26;;;;;;;1.10;1.00;;;12.30;99.90;;;;;;4974341;28;20414;-72
2022/06/03 04:51:43;;;;;;;0.80;0.60;;;12.40;99.90;;;;;;4974178;28;20422;-74
2022/06/03 04:54:40;;;;;;;0.83;0.70;;;12.50;99.90;;;;;;4955371;28;20443;-72
2022/06/03 04:57:24;;;;;;;0.80;0.70;;;12.60;99.90;;;;;;4971818;28;20485;-73
2022/06/03 05:00:18;;;;;;;1.63;1.53;;;12.60;99.90;;;;;;4973785;28;20433;-73
2022/06/03 05:03:08;;;;;;;0.80;0.50;;;12.80;99.90;;;;;;4971686;28;20482;-73
2022/06/03 05:06:26;;;;;;;0.80;0.60;;;12.90;99.90;;;;;;4969963;28;20473;-73
2022/06/03 05:09:13;;;;;;;0.83;0.63;;;13.00;99.90;;;;;;4968518;28;20434;-73
2022/06/03 05:12:21;;;;;;;1.77;1.07;;;13.10;99.90;;;;;;4971508;28;20464;-73
2022/06/03 05:15:12;;;;;;;1.07;0.97;;;13.20;99.90;;;;;;4971013;28;20418;-74
2022/06/03 05:18:15;;;;;;;0.80;0.50;;;13.40;99.90;;;;;;4969178;28;20469;-72
2022/06/03 05:21:27;;;;;;;0.80;0.73;;;13.50;99.90;;;;;;4972294;28;20434;-74
2022/06/03 05:24:17;;;;;;;0.80;0.60;;;13.60;99.90;;;;;;4967181;28;20485;-73
2022/06/03 05:27:28;;;;;;;0.87;0.60;;;13.80;99.90;;;;;;4971053;28;20398;-74
2022/06/03 05:30:26;;;;;;;1.10;0.70;;;13.90;99.90;;;;;;4971859;28;20444;-72
2022/06/03 05:33:26;;;;;;;0.80;0.60;;;14.00;99.90;;;;;;4970184;28;20417;-74
2022/06/03 05:36:12;;;;;;;1.17;0.70;;;14.20;99.90;;;;;;4972256;28;20450;-75
2022/06/03 05:38:57;;;;;;;1.17;1.07;;;14.30;99.90;;;;;;4973285;28;20417;-72
2022/06/03 05:44:58;;;;;;;1.00;0.77;;;14.60;99.90;;;;;;4972005;29;20405;-74
2022/06/03 05:47:51;;;;;;;0.93;0.83;;;14.70;99.90;;;;;;4968276;28;20432;-74
2022/06/03 05:50:38;;;;;;;1.47;0.80;;;14.90;99.90;;;;;;4969089;28;20449;-74
2022/06/03 05:53:14;;;;;;;2.03;0.83;;;15.10;99.90;;;;;;4968554;28;20422;-72
2022/06/03 05:55:53;;;;;;;0.80;0.70;;;15.20;99.90;;;;;;4968897;28;20504;-75
2022/06/03 05:58:33;;;;;;;1.47;1.37;;;15.40;99.90;;;;;;4964802;28;20410;-73
2022/06/03 06:01:14;;;;;;;0.80;0.57;;;15.60;99.90;;;;;;4966016;29;20497;-73
2022/06/03 06:04:15;;;;;;;0.80;0.50;;;15.80;99.90;;;;;;4964923;28;20421;-74
2022/06/03 06:07:10;;;;;;;0.90;0.63;;;16.00;99.90;;;;;;4962420;28;20433;-75
2022/06/03 06:09:54;;;;;;;0.80;0.70;;;16.20;99.90;;;;;;4964217;28;20822;-74
2022/06/03 06:12:39;;;;;;;0.83;0.67;;;16.40;99.90;;;;;;4964667;28;20938;-74
2022/06/03 06:15:07;;;;;;;0.80;0.60;;;16.70;99.90;;;;;;4961446;28;20410;-74
2022/06/03 06:17:52;;;;;;;1.00;0.80;;;17.10;99.90;;;;;;4961493;28;20469;-74
2022/06/03 06:20:56;;;;;;;1.00;0.60;;;17.50;99.90;;;;;;4964887;28;20481;-73
2022/06/03 06:23:43;;;;;;;1.00;0.60;;;18.00;99.90;;;;;;4954698;28;20454;-74
2022/06/03 06:26:11;;;;;;;0.80;0.60;;;18.60;99.90;;;;;;4959302;28;20780;-74
2022/06/03 06:28:46;;;;;;;0.80;0.60;;;19.10;99.90;;;;;;4963342;28;20418;-74
2022/06/03 06:31:39;;;;;;;1.07;0.97;;;19.60;99.90;;;;;;4962820;28;20958;-74
2022/06/03 06:34:17;;;;;;;0.90;0.70;;;20.20;99.90;;;;;;4961934;28;20414;-74
2022/06/03 06:37:16;;;;;;;0.90;0.73;;;20.80;99.90;;;;;;4962168;29;20473;-75
2022/06/03 06:40:20;;;;;;;1.03;0.93;;;21.20;99.90;;;;;;4962995;28;20438;-75
2022/06/03 06:43:17;;;;;;;1.10;0.90;;;21.60;99.90;;;;;;4964911;28;20793;-75
2022/06/03 06:46:07;;;;;;;1.00;0.83;;;22.00;99.90;;;;;;4963122;28;20426;-74
2022/06/03 06:48:49;;;;;;;0.90;0.70;;;22.40;99.90;;;;;;4960877;28;20414;-74
2022/06/03 06:51:48;;;;;;;0.87;0.73;;;22.70;99.90;;;;;;4962154;28;20485;-74
2022/06/03 06:54:16;;;;;;;0.80;0.70;;;23.00;99.90;;;;;;4963742;28;20473;-75
2022/06/03 06:56:41;;;;;;;0.80;0.60;;;23.30;99.90;;;;;;4964013;29;20465;-75
2022/06/03 06:59:13;;;;;;;1.07;0.87;;;23.50;99.90;;;;;;4965484;28;20461;-74
2022/06/03 07:01:48;;;;;;;1.20;1.10;;;23.70;99.90;;;;;;4961465;28;20233;-74
2022/06/03 07:04:21;;;;;;;1.10;0.80;;;24.00;97.40;;;;;;4960678;28;20417;-73
2022/06/03 07:06:54;;;;;;;1.13;0.90;;;24.40;96.20;;;;;;4977465;28;20429;-74
2022/06/03 07:09:30;;;;;;;2.70;0.80;;;24.90;93.50;;;;;;4962980;28;20410;-74
2022/06/03 07:12:13;;;;;;;5.73;0.97;;;25.50;90.60;;;;;;4963826;28;20477;-74
2022/06/03 07:15:02;;;;;;;0.90;0.80;;;26.10;84.40;;;;;;4964041;28;20422;-74
2022/06/03 11:01:31;;;;;;;1.20;1.10;;;50.00;22.70;;;;;;5109398;28;20402;-70
2022/06/03 11:03:57;;;;;;;1.40;1.30;;;49.50;22.90;;;;;;5109321;28;20504;-70
2022/06/03 11:06:28;;;;;;;1.20;1.10;;;49.30;23.10;;;;;;5108919;28;20472;-70
2022/06/03 11:08:58;;;;;;;1.30;1.20;;;49.60;23.20;;;;;;5109275;28;20418;-70
2022/06/03 11:11:44;;;;;;;1.30;1.20;;;50.10;23.20;;;;;;5109117;28;20474;-70
2022/06/03 11:14:39;;;;;;;1.30;1.20;;;50.80;23.20;;;;;;5109377;28;20916;-73
2022/06/03 11:17:11;;;;;;;1.20;1.10;;;51.10;23.00;;;;;;5109170;28;20358;-70
2022/06/03 11:19:45;;;;;;;1.33;1.23;;;50.80;22.90;;;;;;5108904;28;20740;-70
2022/06/03 11:22:12;;;;;;;1.47;1.37;;;50.00;22.90;;;;;;5109013;28;20391;-71
2022/06/03 11:24:38;;;;;;;1.30;1.20;;;49.40;23.20;;;;;;5108534;28;20458;-70
2022/06/03 11:27:07;;;;;;;1.40;1.30;;;49.00;23.30;;;;;;5107630;28;20386;-70
2022/06/03 11:29:38;;;;;;;1.40;1.30;;;48.70;23.50;;;;;;5107565;28;20793;-70
2022/06/03 11:32:08;;;;;;;1.30;1.20;;;48.80;23.60;;;;;;5107937;28;20407;-70
2022/06/03 11:34:39;;;;;;;1.30;1.20;;;49.10;23.70;;;;;;5107918;28;20410;-70
2022/06/03 11:37:26;;;;;;;1.30;1.20;;;49.80;23.80;;;;;;5107381;28;20413;-71
2022/06/03 11:40:23;;;;;;;1.20;1.10;;;50.60;23.70;;;;;;5108696;28;20793;-70
2022/06/03 11:42:57;;;;;;;1.20;1.10;;;51.00;23.60;;;;;;5108016;28;20904;-74
2022/06/03 11:45:34;;;;;;;1.47;1.13;;;51.30;23.60;;;;;;5108127;28;20508;-70
2022/06/03 11:48:07;;;;;;;1.40;1.30;;;50.90;23.30;;;;;;5108466;28;20410;-70
2022/06/03 11:50:34;;;;;;;1.17;1.07;;;49.70;23.20;;;;;;5108482;28;20391;-70
2022/06/03 11:53:01;;;;;;;1.20;1.10;;;48.50;23.30;;;;;;5108288;28;20399;-70
2022/06/03 11:55:30;;;;;;;1.20;1.10;;;47.90;23.70;;;;;;5101531;28;20908;-70
2022/06/03 11:58:07;;;;;;;1.20;1.10;;;47.50;23.80;;;;;;5094896;28;20396;-70
2022/06/03 12:00:38;;;;;;;1.10;1.00;;;47.20;24.00;;;;;;5094885;28;20486;-70
2022/06/03 12:03:10;;;;;;;1.20;1.10;;;46.80;24.00;;;;;;5094587;28;20388;-70
2022/06/03 12:05:44;;;;;;;1.30;1.20;;;46.50;24.30;;;;;;5094083;28;20414;-70
2022/06/03 12:08:24;;;;;;;1.10;1.00;;;46.60;24.50;;;;;;5094674;28;20415;-70
2022/06/03 12:14:32;;;;;;;1.23;1.13;;;48.50;24.40;;;;;;5094461;28;20223;-71
2022/06/03 12:16:59;;;;;;;1.47;1.37;;;49.40;24.10;;;;;;5094564;28;20412;-70
2022/06/03 12:19:37;;;;;;;1.23;1.13;;;49.40;23.90;;;;;;5094398;28;20404;-70
2022/06/03 12:22:18;;;;;;;1.30;1.20;;;48.60;23.80;;;;;;5092969;28;20423;-70
2022/06/03 12:24:47;;;;;;;1.20;1.10;;;47.70;23.90;;;;;;5093962;28;20430;-70
2022/06/03 12:27:27;;;;;;;1.07;0.97;;;46.80;24.10;;;;;;5094260;28;20465;-70
2022/06/03 12:30:18;;;;;;;1.10;1.00;;;45.90;24.40;;;;;;5094359;28;20472;-70
2022/06/03 12:32:52;;;;;;;1.17;1.07;;;44.80;24.60;;;;;;5093083;28;20383;-69
2022/06/03 12:35:43;;;;;;;1.70;1.23;;;43.90;24.90;;;;;;5093829;28;20394;-73
2022/06/03 12:38:21;;;;;;;1.10;1.00;;;43.20;25.20;;;;;;5094151;28;20378;-70
2022/06/03 12:40:48;;;;;;;1.33;1.23;;;42.50;25.50;;;;;;5094152;28;20374;-72
2022/06/03 12:43:29;;;;;;;1.20;1.10;;;42.00;25.80;;;;;;5094045;28;20557;-70
2022/06/03 12:46:07;;;;;;;1.20;1.10;;;42.00;26.20;;;;;;5092903;28;20995;-74
2022/06/03 12:48:40;;;;;;;1.20;1.10;;;42.40;26.50;;;;;;5093908;28;20403;-70
2022/06/03 12:51:30;;;;;;;2.20;1.20;;;42.90;26.50;;;;;;5092976;28;21058;-70
2022/06/03 12:54:05;;;;;;;1.00;0.90;;;43.00;26.40;;;;;;5093705;28;20907;-70
2022/06/03 12:57:00;;;;;;;1.30;1.07;;;43.00;26.50;;;;;;5093487;28;20781;-72
2022/06/03 12:59:48;;;;;;;1.13;1.03;;;43.40;26.70;;;;;;5093682;28;20379;-70
2022/06/03 13:02:27;;;;;;;1.20;1.10;;;44.00;26.70;;;;;;5093729;28;20382;-70
2022/06/03 13:04:53;;;;;;;1.20;1.10;;;44.30;26.50;;;;;;5093433;28;21202;-70
2022/06/03 13:07:27;;;;;;;1.40;1.30;;;44.30;26.40;;;;;;5092552;28;20465;-70
2022/06/03 13:10:01;;;;;;;1.00;0.90;;;44.10;26.20;;;;;;5093480;28;20165;-70
2022/06/03 13:12:43;;;;;;;1.20;1.10;;;43.40;26.20;;;;;;5092044;28;20963;-70
2022/06/03 13:15:23;;;;;;;1.00;0.90;;;42.70;26.30;;;;;;5093061;28;20466;-70
2022/06/03 13:18:20;;;;;;;1.10;1.00;;;42.20;26.70;;;;;;5093449;28;20398;-70
2022/06/03 13:20:56;;;;;;;1.17;1.07;;;41.90;27.00;;;;;;5092108;28;20899;-73
2022/06/03 13:23:42;;;;;;;1.27;1.17;;;41.50;27.10;;;;;;5093194;28;20429;-70
2022/06/03 13:26:22;;;;;;;1.03;0.93;;;41.10;27.30;;;;;;5092819;28;20412;-70
2022/06/03 13:28:57;;;;;;;1.00;0.90;;;40.70;27.60;;;;;;5093133;28;20399;-70
2022/06/03 13:31:40;;;;;;;0.97;0.87;;;40.20;27.80;;;;;;5093104;28;20719;-70
2022/06/03 13:34:09;;;;;;;1.10;1.00;;;39.90;28.10;;;;;;5092985;28;20400;-72
2022/06/03 13:36:50;;;;;;;1.03;0.93;;;39.70;28.60;;;;;;5092743;28;20435;-69
2022/06/03 13:39:24;;;;;;;1.10;1.00;;;39.50;29.10;;;;;;5092944;28;20400;-70
2022/06/03 13:45:12;;;;;;;1.10;1.00;;;39.10;29.80;;;;;;5092544;28;20450;-69
2022/06/03 13:47:40;;;;;;;1.20;1.10;;;38.80;30.20;;;;;;5091604;28;20779;-70
2022/06/03 13:50:18;;;;;;;1.10;1.00;;;38.60;30.30;;;;;;5092771;28;20435;-69
2022/06/03 13:52:46;;;;;;;1.10;1.00;;;38.40;30.50;;;;;;5092764;28;20395;-69
2022/06/03 13:55:20;;;;;;;1.40;1.10;;;38.20;30.70;;;;;;5092188;28;20443;-70
2022/06/03 13:57:58;;;;;;;1.20;1.10;;;38.10;31.10;;;;;;5092522;28;20490;-69
2022/06/03 14:00:31;;;;;;;1.07;0.97;;;37.90;31.50;;;;;;5092580;28;20436;-70
2022/06/03 14:03:12;;;;;;;1.30;1.20;;;37.70;31.80;;;;;;5092141;28;20920;-70
2022/06/03 14:05:47;;;;;;;1.10;1.00;;;37.50;32.00;;;;;;5092450;28;20482;-71
2022/06/03 14:08:21;;;;;;;1.13;1.03;;;37.30;32.20;;;;;;5092286;28;20415;-70
2022/06/03 14:11:01;;;;;;;0.93;0.80;;;37.10;32.50;;;;;;5092373;28;20419;-69
2022/06/03 14:13:48;;;;;;;1.00;0.90;;;36.90;32.50;;;;;;5092345;28;20408;-71
2022/06/03 14:16:20;;;;;;;1.20;1.10;;;36.70;32.70;;;;;;5091968;28;20914;-73
2022/06/03 14:19:03;;;;;;;1.27;0.90;;;36.50;32.80;;;;;;5091987;28;20944;-69
2022/06/03 14:21:37;;;;;;;1.20;1.10;;;36.20;33.10;;;;;;5092314;28;20948;-69
2022/06/03 14:24:25;;;;;;;1.53;1.43;;;36.00;33.40;;;;;;5092201;28;21022;-69
2022/06/03 14:27:17;;;;;;;1.00;0.90;;;35.80;33.60;;;;;;5084496;28;20518;-69
2022/06/03 14:29:48;;;;;;;1.03;0.93;;;35.70;33.80;;;;;;5071492;28;20448;-69
2022/06/03 14:32:21;;;;;;;1.30;1.20;;;35.50;33.90;;;;;;5072618;28;20407;-75
2022/06/03 14:34:53;;;;;;;1.23;1.10;;;35.50;33.90;;;;;;5071573;28;20431;-69
2022/06/03 14:37:48;;;;;;;1.47;1.37;;;35.40;33.90;;;;;;5071823;28;20483;-69
2022/06/03 14:40:20;;;;;;;1.50;1.40;;;35.20;33.80;;;;;;5071831;28;20404;-70
2022/06/03 14:42:49;;;;;;;0.90;0.80;;;35.20;33.90;;;;;;5071798;28;20829;-72
2022/06/03 14:45:15;;;;;;;1.10;1.00;;;35.00;34.10;;;;;;5071411;28;20463;-70
2022/06/03 14:47:46;;;;;;;1.20;1.10;;;34.90;34.30;;;;;;5073055;28;20416;-69
2022/06/03 14:50:24;;;;;;;1.10;1.00;;;34.80;34.40;;;;;;5071801;28;20166;-73
2022/06/03 14:53:31;;;;;;;1.10;0.90;;;34.70;34.60;;;;;;5071772;28;21073;-68
2022/06/03 14:56:03;;;;;;;1.63;0.87;;;34.60;34.60;;;;;;5070651;28;20988;-74
2022/06/03 14:58:40;;;;;;;1.30;1.20;;;34.40;34.50;;;;;;5082321;28;20439;-71
2022/06/03 15:01:17;;;;;;;1.20;1.03;;;34.40;34.70;;;;;;5090549;28;20501;-69
2022/06/03 15:04:05;;;;;;;1.50;1.00;;;34.30;34.90;;;;;;5083574;28;20455;-74
2022/06/03 15:06:45;;;;;;;1.07;0.97;;;34.10;34.90;;;;;;5071301;28;20439;-71
2022/06/03 15:09:24;;;;;;;1.10;1.00;;;34.00;35.00;;;;;;5071583;28;20450;-71
2022/06/03 15:12:18;;;;;;;1.03;0.93;;;33.90;35.10;;;;;;5070284;28;20408;-70
2022/06/03 15:14:44;;;;;;;1.03;0.87;;;33.70;35.30;;;;;;5082706;28;20961;-70
2022/06/03 15:17:12;;;;;;;1.10;1.00;;;33.50;35.50;;;;;;5091760;28;20412;-70
2022/06/03 15:19:51;;;;;;;1.03;0.93;;;33.30;35.60;;;;;;5091445;28;20434;-70
2022/06/03 15:22:21;;;;;;;1.60;1.23;;;33.10;35.70;;;;;;5090504;28;20767;-74
2022/06/03 15:24:53;;;;;;;1.40;1.10;;;32.80;35.90;;;;;;5089830;28;20502;-73
2022/06/03 15:27:41;;;;;;;1.00;0.90;;;32.70;36.10;;;;;;5090782;28;20388;-70
2022/06/03 15:30:25;;;;;;;0.90;0.77;;;32.60;36.30;;;;;;5071929;28;20813;-70
2022/06/03 15:32:51;;;;;;;0.90;0.80;;;32.50;36.50;;;;;;5075154;28;20505;-70
2022/06/03 15:35:22;;;;;;;1.00;0.90;;;32.40;36.60;;;;;;5094023;28;20549;-70
2022/06/03 15:37:48;;;;;;;0.90;0.70;;;32.30;36.90;;;;;;5095295;28;20193;-70
2022/06/03 15:40:29;;;;;;;1.30;0.90;;;32.20;37.10;;;;;;5094124;28;20414;-70
2022/06/03 15:42:57;;;;;;;1.10;1.00;;;32.20;37.40;;;;;;5095325;28;20439;-69
2022/06/03 15:45:42;;;;;;;1.77;1.00;;;32.00;37.70;;;;;;5093007;28;20455;-70
2022/06/03 15:48:12;;;;;;;1.10;1.00;;;32.00;38.20;;;;;;5095154;28;20498;-70
2022/06/03 15:50:43;;;;;;;0.90;0.70;;;31.90;38.40;;;;;;5094659;28;20561;-74
2022/06/03 15:53:23;;;;;;;1.30;1.20;;;31.90;38.70;;;;;;5093284;28;20415;-69
2022/06/03 15:56:20;;;;;;;0.90;0.70;;;31.80;39.00;;;;;;5072889;28;20440;-70
2022/06/03 15:58:46;;;;;;;1.10;0.90;;;31.70;39.20;;;;;;5072822;28;20906;-73
2022/06/03 16:01:20;;;;;;;0.90;0.70;;;31.60;39.30;;;;;;5083409;28;20399;-70
2022/06/03 16:04:24;;;;;;;1.20;1.00;;;31.60;39.60;;;;;;5086063;28;20197;-74
2022/06/03 16:07:13;;;;;;;1.20;1.10;;;31.40;39.90;;;;;;5074470;28;20780;-70
2022/06/03 16:09:50;;;;;;;1.20;0.90;;;31.30;40.00;;;;;;5072905;28;20919;-70
2022/06/03 16:12:27;;;;;;;1.23;1.10;;;31.20;40.10;;;;;;5074611;28;20393;-70
2022/06/03 16:15:19;;;;;;;0.97;0.87;;;31.10;40.40;;;;;;5092152;28;20794;-71
2022/06/03 16:18:22;;;;;;;1.23;1.13;;;31.10;40.60;;;;;;5094709;28;20391;-75
2022/06/03 16:20:58;;;;;;;0.90;0.70;;;30.90;40.60;;;;;;5078135;28;20424;-70
2022/06/03 16:23:39;;;;;;;0.90;0.70;;;30.90;40.90;;;;;;5078891;28;20646;-70
2022/06/03 16:26:27;;;;;;;1.03;0.80;;;30.80;41.00;;;;;;5094204;28;20940;-70
2022/06/03 16:28:59;;;;;;;1.20;1.00;;;30.60;41.20;;;;;;5094563;28;20388;-73
2022/06/03 16:31:44;;;;;;;1.27;1.17;;;30.50;41.30;;;;;;5094477;28;20404;-70
2022/06/03 16:34:19;;;;;;;1.10;0.90;;;30.40;41.50;;;;;;5083101;28;20420;-71
2022/06/03 16:37:00;;;;;;;1.00;0.80;;;30.20;41.70;;;;;;5073935;28;20423;-71
2022/06/03 16:39:38;;;;;;;1.00;0.70;;;30.00;41.80;;;;;;5074042;28;20400;-70
2022/06/03 16:42:22;;;;;;;1.00;0.80;;;29.80;42.00;;;;;;5072536;28;20412;-71
2022/06/03 16:46:05;;;;;;;1.10;0.70;;;29.70;42.60;;;;;;5089178;28;20875;-70
2022/06/03 16:48:01;;;;;;;1.10;1.00;;;29.50;42.50;;;;;;5093933;28;20494;-70
2022/06/03 16:50:32;;;;;;;1.00;0.90;;;29.30;42.90;;;;;;5094148;28;20405;-70
2022/06/03 16:53:00;;;;;;;1.20;1.10;;;29.10;43.30;;;;;;5091610;28;20403;-75
2022/06/03 16:55:50;;;;;;;0.97;0.80;;;28.90;43.60;;;;;;5073512;28;20444;-74
2022/06/03 16:58:19;;;;;;;1.00;0.80;;;28.80;43.80;;;;;;5077941;28;20408;-73
2022/06/03 17:01:21;;;;;;;1.00;0.90;;;28.70;44.70;;;;;;5093882;28;20430;-71
2022/06/03 17:03:47;;;;;;;1.10;1.00;;;28.50;44.40;;;;;;5071501;28;20968;-71
2022/06/03 17:06:15;;;;;;;0.90;0.80;;;28.40;44.60;;;;;;5073173;28;20420;-70
2022/06/03 17:08:50;;;;;;;1.00;0.80;;;28.30;44.80;;;;;;5073492;28;20431;-71
2022/06/03 17:11:24;;;;;;;1.10;0.83;;;28.20;44.50;;;;;;5076866;28;20399;-70
2022/06/03 17:13:52;;;;;;;1.07;0.97;;;28.20;45.20;;;;;;5084480;28;21101;-70
2022/06/03 17:16:20;;;;;;;0.90;0.77;;;28.10;45.40;;;;;;5073007;28;20416;-71
2022/06/03 17:18:46;;;;;;;1.10;0.80;;;28.10;45.70;;;;;;5073216;28;20405;-70
2022/06/03 17:21:42;;;;;;;1.07;0.97;;;28.10;45.80;;;;;;5073094;28;20397;-70
2022/06/03 17:24:34;;;;;;;0.90;0.70;;;28.10;45.90;;;;;;5083863;28;20979;-71
2022/06/03 17:27:02;;;;;;;1.53;0.90;;;28.10;46.10;;;;;;5093123;28;20420;-70
2022/06/03 17:29:31;;;;;;;1.13;0.90;;;28.10;46.30;;;;;;5092645;28;20422;-69
2022/06/03 17:32:00;;;;;;;0.90;0.80;;;28.10;46.50;;;;;;5093145;28;20464;-70
2022/06/03 17:34:36;;;;;;;1.00;0.80;;;28.10;46.60;;;;;;5079245;28;20548;-70
2022/06/03 17:37:31;;;;;;;0.90;0.70;;;28.10;46.70;;;;;;5072887;28;20792;-70
2022/06/03 17:40:20;;;;;;;4.50;0.97;;;28.00;46.70;;;;;;5072829;28;20416;-72
2022/06/03 17:43:06;;;;;;;0.90;0.70;;;27.80;46.80;;;;;;5073180;28;20431;-70
2022/06/03 17:45:44;;;;;;;0.97;0.80;;;27.70;46.90;;;;;;5092691;28;20505;-70
2022/06/03 17:48:10;;;;;;;0.83;0.63;;;27.60;47.00;;;;;;5092649;28;20901;-70
2022/06/03 17:50:50;;;;;;;1.30;1.00;;;27.50;47.10;;;;;;5092814;28;20403;-70
2022/06/03 17:56:43;;;;;;;0.97;0.70;;;27.20;47.40;;;;;;5072116;28;20524;-70
2022/06/03 17:59:43;;;;;;;0.93;0.70;;;27.00;47.50;;;;;;5072497;28;20408;-70
2022/06/03 18:02:18;;;;;;;0.90;0.70;;;26.90;47.70;;;;;;5072454;28;20400;-69
2022/06/03 18:05:09;;;;;;;1.07;0.97;;;26.70;47.80;;;;;;5088245;28;20889;-69
2022/06/03 18:07:59;;;;;;;0.90;0.60;;;26.50;48.00;;;;;;5092258;28;20423;-69